createdAt,value
2018-12-05T00:01:05.881Z,20.70
2018-12-05T00:02:37.454Z,20.10
2018-12-05T00:04:09.108Z,22.00
2018-12-05T00:05:40.603Z,20.90
2018-12-05T00:07:12.177Z,17.90
2018-12-05T00:08:43.752Z,18.90
2018-12-05T00:10:15.326Z,17.60
2018-12-05T00:11:46.901Z,18.70
2018-12-05T00:13:18.475Z,18.40
2018-12-05T00:14:50.050Z,16.60
2018-12-05T00:16:21.624Z,17.80
2018-12-05T00:17:53.299Z,19.20
2018-12-05T00:19:24.773Z,20.20
2018-12-05T00:20:56.347Z,22.40
2018-12-05T00:22:27.922Z,20.10
2018-12-05T00:23:59.496Z,19.80
2018-12-05T00:25:31.071Z,20.40
2018-12-05T00:27:02.645Z,20.10
2018-12-05T00:28:34.221Z,19.60
2018-12-05T00:30:05.793Z,21.80
2018-12-05T00:31:37.368Z,24.30
2018-12-05T00:33:08.942Z,27.00
2018-12-05T00:34:40.517Z,23.10
2018-12-05T00:36:12.194Z,22.00
2018-12-05T00:37:43.666Z,26.20
2018-12-05T00:39:15.239Z,24.50
2018-12-05T00:40:46.814Z,26.40
2018-12-05T00:42:18.388Z,23.20
2018-12-05T00:43:49.962Z,22.60
2018-12-05T00:45:21.536Z,24.00
2018-12-05T00:46:53.111Z,25.30
2018-12-05T00:48:24.686Z,25.40
2018-12-05T00:49:56.261Z,22.00
2018-12-05T00:51:27.834Z,22.50
2018-12-05T00:52:59.414Z,18.00
2018-12-05T00:54:31.082Z,21.30
2018-12-05T00:56:02.556Z,18.90
2018-12-05T00:57:34.133Z,22.70
2018-12-05T00:59:05.706Z,20.90
2018-12-05T01:00:37.279Z,21.10
2018-12-05T01:02:08.858Z,19.10
2018-12-05T01:03:40.430Z,26.40
2018-12-05T01:05:12.002Z,19.10
2018-12-05T01:06:43.577Z,21.80
2018-12-05T01:08:15.150Z,23.00
2018-12-05T01:09:46.726Z,24.30
2018-12-05T01:11:18.299Z,20.70
2018-12-05T01:12:49.973Z,23.60
2018-12-05T01:14:21.447Z,23.30
2018-12-05T01:15:53.022Z,22.30
2018-12-05T01:17:24.595Z,23.80
2018-12-05T01:18:56.169Z,24.40
2018-12-05T01:20:27.744Z,26.70
2018-12-05T01:21:59.318Z,22.20
2018-12-05T01:23:30.893Z,29.00
2018-12-05T01:25:02.467Z,28.50
2018-12-05T01:26:34.045Z,20.40
2018-12-05T01:28:05.614Z,27.20
2018-12-05T01:29:37.188Z,26.60
2018-12-05T01:31:08.862Z,24.00
2018-12-05T01:32:40.340Z,25.50
2018-12-05T01:34:11.911Z,22.80
2018-12-05T01:35:43.486Z,21.40
2018-12-05T01:37:15.060Z,26.00
2018-12-05T01:38:46.634Z,27.00
2018-12-05T01:40:18.208Z,26.90
2018-12-05T01:41:49.786Z,19.50
2018-12-05T01:43:21.358Z,22.20
2018-12-05T01:44:52.932Z,24.80
2018-12-05T01:46:24.507Z,24.60
2018-12-05T01:47:56.115Z,26.80
2018-12-05T01:49:27.756Z,26.00
2018-12-05T01:50:59.229Z,21.70
2018-12-05T01:52:31.021Z,19.40
2018-12-05T01:54:02.379Z,20.70
2018-12-05T01:55:33.971Z,26.70
2018-12-05T01:57:05.531Z,27.90
2018-12-05T01:58:37.120Z,24.70
2018-12-05T02:00:08.676Z,20.10
2018-12-05T02:01:40.251Z,19.30
2018-12-05T02:03:11.825Z,25.90
2018-12-05T02:04:43.401Z,22.00
2018-12-05T02:06:15.282Z,23.60
2018-12-05T02:07:46.664Z,22.90
2018-12-05T02:09:18.123Z,24.90
2018-12-05T02:10:49.698Z,22.30
2018-12-05T02:12:21.272Z,22.00
2018-12-05T02:13:52.846Z,24.70
2018-12-05T02:15:24.420Z,22.00
2018-12-05T02:16:55.994Z,22.60
2018-12-05T02:18:27.568Z,23.60
2018-12-05T02:19:59.146Z,25.10
2018-12-05T02:21:30.724Z,24.30
2018-12-05T02:23:02.293Z,21.20
2018-12-05T02:24:33.868Z,24.10
2018-12-05T02:26:05.544Z,22.10
2018-12-05T02:27:37.012Z,30.70
2018-12-05T02:29:08.587Z,24.90
2018-12-05T02:30:40.161Z,24.50
2018-12-05T02:32:11.736Z,24.90
2018-12-05T02:33:43.310Z,23.70
2018-12-05T02:35:14.884Z,22.70
2018-12-05T02:36:46.459Z,21.00
2018-12-05T02:38:18.033Z,19.70
2018-12-05T02:39:49.607Z,23.40
2018-12-05T02:41:21.182Z,22.30
2018-12-05T02:42:52.755Z,24.80
2018-12-05T02:44:24.432Z,25.90
2018-12-05T02:45:55.904Z,23.50
2018-12-05T02:47:27.478Z,22.40
2018-12-05T02:48:59.051Z,26.10
2018-12-05T02:50:30.625Z,24.20
2018-12-05T02:52:02.201Z,24.60
2018-12-05T02:53:33.775Z,22.90
2018-12-05T02:55:05.348Z,28.10
2018-12-05T02:56:36.925Z,30.80
2018-12-05T02:58:08.500Z,30.90
2018-12-05T02:59:40.069Z,26.00
2018-12-05T03:01:11.643Z,26.20
2018-12-05T03:02:43.317Z,30.70
2018-12-05T03:04:14.791Z,24.90
2018-12-05T03:05:46.368Z,20.70
2018-12-05T03:07:17.944Z,23.50
2018-12-05T03:08:49.513Z,26.40
2018-12-05T03:10:21.088Z,25.70
2018-12-05T03:11:52.661Z,25.50
2018-12-05T03:13:24.236Z,26.60
2018-12-05T03:14:55.808Z,26.90
2018-12-05T03:16:27.385Z,39.40
2018-12-05T03:17:58.955Z,41.00
2018-12-05T03:19:30.529Z,51.10
2018-12-05T03:21:02.202Z,31.60
2018-12-05T03:22:33.678Z,25.90
2018-12-05T03:24:05.250Z,27.70
2018-12-05T03:25:36.823Z,25.50
2018-12-05T03:27:08.396Z,32.60
2018-12-05T03:28:39.968Z,38.40
2018-12-05T03:30:11.543Z,27.60
2018-12-05T03:31:43.117Z,29.10
2018-12-05T03:33:14.700Z,39.00
2018-12-05T03:34:46.263Z,32.60
2018-12-05T03:36:17.835Z,25.40
2018-12-05T03:37:49.409Z,24.90
2018-12-05T03:39:21.082Z,23.70
2018-12-05T03:40:52.555Z,27.60
2018-12-05T03:42:24.129Z,28.80
2018-12-05T03:43:55.702Z,30.20
2018-12-05T03:45:27.276Z,27.20
2018-12-05T03:46:58.852Z,32.50
2018-12-05T03:48:30.422Z,29.70
2018-12-05T03:50:02.043Z,30.00
2018-12-05T03:51:33.569Z,34.70
2018-12-05T03:53:05.142Z,31.20
2018-12-05T03:54:36.717Z,38.00
2018-12-05T03:56:08.296Z,32.40
2018-12-05T03:57:39.963Z,34.00
2018-12-05T03:59:11.437Z,34.80
2018-12-05T04:00:43.086Z,35.00
2018-12-05T04:02:14.582Z,38.30
2018-12-05T04:03:46.155Z,35.90
2018-12-05T04:05:17.729Z,37.90
2018-12-05T04:06:49.303Z,44.10
2018-12-05T04:08:20.878Z,61.10
2018-12-05T04:09:52.449Z,60.30
2018-12-05T04:11:24.022Z,42.40
2018-12-05T04:12:55.599Z,36.70
2018-12-05T04:14:27.277Z,38.90
2018-12-05T04:15:58.842Z,37.80
2018-12-05T04:17:30.315Z,41.00
2018-12-05T04:19:01.890Z,40.40
2018-12-05T04:20:33.461Z,48.70
2018-12-05T04:22:05.089Z,47.70
2018-12-05T04:23:36.611Z,49.40
2018-12-05T04:25:08.182Z,49.90
2018-12-05T04:26:39.754Z,48.90
2018-12-05T04:28:11.330Z,46.70
2018-12-05T04:29:42.903Z,47.50
2018-12-05T04:31:14.474Z,52.20
2018-12-05T04:32:46.046Z,48.40
2018-12-05T04:34:17.719Z,47.90
2018-12-05T04:35:49.194Z,50.30
2018-12-05T04:37:20.765Z,55.10
2018-12-05T04:38:52.339Z,48.30
2018-12-05T04:40:23.913Z,44.90
2018-12-05T04:41:55.486Z,52.80
2018-12-05T04:43:27.058Z,58.70
2018-12-05T04:44:58.632Z,50.00
2018-12-05T04:46:30.203Z,61.30
2018-12-05T04:48:01.777Z,54.00
2018-12-05T04:49:33.355Z,57.80
2018-12-05T04:51:04.923Z,54.80
2018-12-05T04:52:36.596Z,57.00
2018-12-05T04:54:08.070Z,52.80
2018-12-05T04:55:39.643Z,51.10
2018-12-05T04:57:11.215Z,59.40
2018-12-05T04:58:42.788Z,58.60
2018-12-05T05:00:14.362Z,49.20
2018-12-05T05:01:45.944Z,56.10
2018-12-05T05:03:17.508Z,55.10
2018-12-05T05:04:49.080Z,57.40
2018-12-05T05:06:20.656Z,71.70
2018-12-05T05:07:52.231Z,67.70
2018-12-05T05:09:23.802Z,67.60
2018-12-05T05:10:55.474Z,70.10
2018-12-05T05:12:26.948Z,79.90
2018-12-05T05:13:58.519Z,79.60
2018-12-05T05:15:30.092Z,65.10
2018-12-05T05:17:01.669Z,65.00
2018-12-05T05:18:33.238Z,80.10
2018-12-05T05:20:04.812Z,71.80
2018-12-05T05:21:36.395Z,70.60
2018-12-05T05:23:07.961Z,73.50
2018-12-05T05:24:39.531Z,86.00
2018-12-05T05:26:11.104Z,72.30
2018-12-05T05:27:45.867Z,76.80
2018-12-05T05:29:14.350Z,71.20
2018-12-05T05:30:45.823Z,75.70
2018-12-05T05:32:17.397Z,70.90
2018-12-05T05:33:48.969Z,84.40
2018-12-05T05:35:20.542Z,78.80
2018-12-05T05:36:52.115Z,84.00
2018-12-05T05:38:23.688Z,78.70
2018-12-05T05:39:55.262Z,79.50
2018-12-05T05:41:26.835Z,75.80
2018-12-05T05:42:58.408Z,68.80
2018-12-05T05:44:29.981Z,69.70
2018-12-05T05:46:01.555Z,61.00
2018-12-05T05:47:33.228Z,74.00
2018-12-05T05:49:04.702Z,67.30
2018-12-05T05:50:36.274Z,67.60
2018-12-05T05:52:07.847Z,72.00
2018-12-05T05:53:39.420Z,75.20
2018-12-05T05:55:10.994Z,73.40
2018-12-05T05:56:42.567Z,76.60
2018-12-05T05:58:14.140Z,72.00
2018-12-05T05:59:45.715Z,68.10
2018-12-05T06:01:17.286Z,71.90
2018-12-05T06:02:48.860Z,67.80
2018-12-05T06:04:20.432Z,70.20
2018-12-05T06:05:52.106Z,80.10
2018-12-05T06:07:23.580Z,88.50
2018-12-05T06:08:55.152Z,81.10
2018-12-05T06:10:26.728Z,73.60
2018-12-05T06:11:58.298Z,91.20
2018-12-05T06:13:29.871Z,79.40
2018-12-05T06:15:01.444Z,81.40
2018-12-05T06:16:33.017Z,87.70
2018-12-05T06:18:04.590Z,80.10
2018-12-05T06:19:36.167Z,81.70
2018-12-05T06:21:07.737Z,81.90
2018-12-05T06:22:39.311Z,85.00
2018-12-05T06:24:10.983Z,82.80
2018-12-05T06:25:42.455Z,94.70
2018-12-05T06:27:14.029Z,96.70
2018-12-05T06:28:45.602Z,92.20
2018-12-05T06:30:17.174Z,92.50
2018-12-05T06:31:48.747Z,89.90
2018-12-05T06:33:20.321Z,85.70
2018-12-05T06:34:51.893Z,97.30
2018-12-05T06:36:23.482Z,100.90
2018-12-05T06:37:55.039Z,115.40
2018-12-05T06:39:26.612Z,116.00
2018-12-05T06:40:58.195Z,93.80
2018-12-05T06:42:29.859Z,80.00
2018-12-05T06:44:01.336Z,78.70
2018-12-05T06:45:32.904Z,80.80
2018-12-05T06:47:04.482Z,75.40
2018-12-05T06:48:36.051Z,94.30
2018-12-05T06:50:07.624Z,105.60
2018-12-05T06:51:39.228Z,114.10
2018-12-05T06:53:10.770Z,92.30
2018-12-05T06:54:42.342Z,102.60
2018-12-05T06:56:13.916Z,89.00
2018-12-05T06:57:45.488Z,87.90
2018-12-05T06:59:17.062Z,91.80
2018-12-05T07:00:48.746Z,81.70
2018-12-05T07:02:20.208Z,90.20
2018-12-05T07:03:51.782Z,80.10
2018-12-05T07:05:23.362Z,74.00
2018-12-05T07:06:54.927Z,65.20
2018-12-05T07:08:26.499Z,78.50
2018-12-05T07:09:58.092Z,83.30
2018-12-05T07:11:29.663Z,87.30
2018-12-05T07:13:01.219Z,84.60
2018-12-05T07:14:32.791Z,99.90
2018-12-05T07:16:04.365Z,85.90
2018-12-05T07:17:35.937Z,94.20
2018-12-05T07:19:08.265Z,99.70
2018-12-05T07:20:39.116Z,91.80
2018-12-05T07:22:10.658Z,79.70
2018-12-05T07:23:42.229Z,96.00
2018-12-05T07:25:13.803Z,78.00
2018-12-05T07:26:45.375Z,97.30
2018-12-05T07:28:16.948Z,88.50
2018-12-05T07:29:48.521Z,109.20
2018-12-05T07:31:20.097Z,90.20
2018-12-05T07:32:51.669Z,92.60
2018-12-05T07:34:23.240Z,97.70
2018-12-05T07:35:54.813Z,94.60
2018-12-05T07:37:26.787Z,91.70
2018-12-05T07:38:57.958Z,90.80
2018-12-05T07:40:29.531Z,94.10
2018-12-05T07:42:01.104Z,93.70
2018-12-05T07:43:32.727Z,83.60
2018-12-05T07:45:04.249Z,92.50
2018-12-05T07:46:35.823Z,85.30
2018-12-05T07:48:07.395Z,88.10
2018-12-05T07:49:38.975Z,84.70
2018-12-05T07:51:10.585Z,86.20
2018-12-05T07:52:42.118Z,88.70
2018-12-05T07:54:13.686Z,82.10
2018-12-05T07:55:45.375Z,96.80
2018-12-05T07:57:16.838Z,84.40
2018-12-05T07:58:48.433Z,85.50
2018-12-05T08:00:19.990Z,84.50
2018-12-05T08:01:51.550Z,93.30
2018-12-05T08:03:23.122Z,81.90
2018-12-05T08:04:54.745Z,88.70
2018-12-05T08:06:26.299Z,93.00
2018-12-05T08:07:57.847Z,89.40
2018-12-05T08:09:29.463Z,91.60
2018-12-05T08:11:01.116Z,90.00
2018-12-05T08:12:32.558Z,81.70
2018-12-05T08:14:04.259Z,87.70
2018-12-05T08:15:35.703Z,117.80
2018-12-05T08:18:38.912Z,100.50
2018-12-05T08:20:10.420Z,74.50
2018-12-05T08:21:41.993Z,60.10
2018-12-05T08:23:13.587Z,74.90
2018-12-05T08:24:45.138Z,66.80
2018-12-05T08:26:16.717Z,71.00
2018-12-05T08:27:48.284Z,80.10
2018-12-05T08:29:19.858Z,75.20
2018-12-05T08:30:51.440Z,66.60
2018-12-05T08:32:23.408Z,62.10
2018-12-05T08:33:54.576Z,72.50
2018-12-05T08:35:26.149Z,63.20
2018-12-05T08:36:57.723Z,51.40
2018-12-05T08:38:29.499Z,50.40
2018-12-05T08:40:00.871Z,48.70
2018-12-05T08:41:32.444Z,41.70
2018-12-05T08:43:04.018Z,44.70
2018-12-05T08:44:35.592Z,39.60
2018-12-05T08:46:07.167Z,36.80
2018-12-05T08:47:39.046Z,39.70
2018-12-05T08:49:10.317Z,37.80
2018-12-05T08:50:42.493Z,35.80
2018-12-05T08:52:13.468Z,30.60
2018-12-05T08:53:45.584Z,33.10
2018-12-05T08:55:16.621Z,32.60
2018-12-05T08:56:48.408Z,31.70
2018-12-05T08:58:19.771Z,31.40
2018-12-05T08:59:51.348Z,32.50
2018-12-05T09:01:23.469Z,38.60
2018-12-05T09:02:54.500Z,32.80
2018-12-05T09:04:26.223Z,32.30
2018-12-05T09:05:57.681Z,32.20
2018-12-05T09:07:29.493Z,32.00
2018-12-05T09:09:01.259Z,32.80
2018-12-05T09:10:32.832Z,31.40
2018-12-05T09:12:04.809Z,30.60
2018-12-05T09:13:36.247Z,28.00
2018-12-05T09:15:08.726Z,30.30
2018-12-05T09:16:40.189Z,28.10
2018-12-05T09:18:12.115Z,26.80
2018-12-05T09:19:42.439Z,27.10
2018-12-05T09:21:14.693Z,29.90
2018-12-05T09:22:47.729Z,28.60
2018-12-05T09:24:19.578Z,28.40
2018-12-05T09:25:50.650Z,28.90
2018-12-05T09:27:21.031Z,26.30
2018-12-05T09:28:57.212Z,27.80
2018-12-05T09:30:24.947Z,26.70
2018-12-05T09:31:57.091Z,25.60
2018-12-05T09:33:27.832Z,26.90
2018-12-05T09:35:00.003Z,27.20
2018-12-05T09:36:30.452Z,26.90
2018-12-05T09:38:02.268Z,29.40
2018-12-05T09:39:33.756Z,25.10
2018-12-05T09:41:05.507Z,27.10
2018-12-05T09:42:36.848Z,26.10
2018-12-05T09:44:07.510Z,25.70
2018-12-05T09:45:39.758Z,25.70
2018-12-05T09:47:15.908Z,26.80
2018-12-05T09:48:42.801Z,25.80
2018-12-05T09:50:14.970Z,26.30
2018-12-05T09:51:47.742Z,28.40
2018-12-05T09:53:18.755Z,30.40
2018-12-05T09:54:48.725Z,25.10
2018-12-05T09:56:21.778Z,27.40
2018-12-05T09:57:52.208Z,25.50
2018-12-05T09:59:23.867Z,28.00
2018-12-05T10:00:55.037Z,29.70
2018-12-05T10:02:27.121Z,27.10
2018-12-05T10:03:59.566Z,24.40
2018-12-05T10:05:29.573Z,23.90
2018-12-05T10:07:02.180Z,22.10
2018-12-05T10:08:34.720Z,23.00
2018-12-05T10:10:04.133Z,23.50
2018-12-05T10:11:36.786Z,21.20
2018-12-05T10:13:09.399Z,20.80
2018-12-05T10:14:40.995Z,19.40
2018-12-05T10:16:11.384Z,20.30
2018-12-05T10:17:44.891Z,16.80
2018-12-05T10:19:15.202Z,17.80
2018-12-05T10:20:46.630Z,17.10
2018-12-05T10:22:18.696Z,16.20
2018-12-05T10:23:50.933Z,15.80
2018-12-05T10:25:22.532Z,15.20
2018-12-05T10:26:53.971Z,14.80
2018-12-05T10:28:25.711Z,15.20
2018-12-05T10:29:56.273Z,15.20
2018-12-05T10:31:27.791Z,15.30
2018-12-05T10:32:58.824Z,15.50
2018-12-05T10:34:30.832Z,14.40
2018-12-05T10:36:03.797Z,17.80
2018-12-05T10:37:34.470Z,14.00
2018-12-05T10:39:05.252Z,12.80
2018-12-05T10:40:38.043Z,10.60
2018-12-05T10:42:09.235Z,10.60
2018-12-05T10:43:39.045Z,9.40
2018-12-05T10:45:11.293Z,7.60
2018-12-05T10:46:43.307Z,7.90
2018-12-05T10:48:15.238Z,7.60
2018-12-05T10:49:46.428Z,7.80
2018-12-05T10:51:17.663Z,7.70
2018-12-05T10:52:49.311Z,9.30
2018-12-05T10:54:20.895Z,7.60
2018-12-05T10:55:52.620Z,6.70
2018-12-05T10:57:25.035Z,7.50
2018-12-05T10:58:56.091Z,6.90
2018-12-05T11:00:27.683Z,7.10
2018-12-05T11:01:59.471Z,8.90
2018-12-05T11:03:31.603Z,5.60
2018-12-05T11:05:03.263Z,5.90
2018-12-05T11:06:34.552Z,6.10
2018-12-05T11:08:05.934Z,5.80
2018-12-05T11:09:37.009Z,5.80
2018-12-05T11:11:08.525Z,5.90
2018-12-05T11:12:40.334Z,5.50
2018-12-05T11:14:11.684Z,5.00
2018-12-05T11:15:43.067Z,6.00
2018-12-05T11:17:15.027Z,5.80
2018-12-05T11:18:46.479Z,5.90
2018-12-05T11:20:18.133Z,5.70
2018-12-05T11:21:50.092Z,6.90
2018-12-05T11:23:21.227Z,6.40
2018-12-05T11:24:53.116Z,6.00
2018-12-05T11:26:24.462Z,6.40
2018-12-05T11:27:56.542Z,5.90
2018-12-05T11:29:27.607Z,6.30
2018-12-05T11:31:00.468Z,7.30
2018-12-05T11:32:30.883Z,8.30
2018-12-05T11:34:03.044Z,6.40
2018-12-05T11:35:33.908Z,5.60
2018-12-05T11:37:05.879Z,5.90
2018-12-05T11:38:37.359Z,5.10
2018-12-05T11:40:09.330Z,5.00
2018-12-05T11:41:40.427Z,3.20
2018-12-05T11:43:12.573Z,3.60
2018-12-05T11:44:43.256Z,3.10
2018-12-05T11:46:14.797Z,3.00
2018-12-05T11:47:46.549Z,3.40
2018-12-05T11:49:19.111Z,2.90
2018-12-05T11:50:50.721Z,3.10
2018-12-05T11:52:21.775Z,3.00
2018-12-05T11:53:53.156Z,3.60
2018-12-05T11:55:24.255Z,3.40
2018-12-05T11:56:56.610Z,3.30
2018-12-05T11:58:27.667Z,3.50
2018-12-05T11:59:59.342Z,3.50
2018-12-05T12:01:30.795Z,4.50
2018-12-05T12:03:07.897Z,3.20
2018-12-05T12:04:34.676Z,4.40
2018-12-05T12:06:06.039Z,3.70
2018-12-05T12:07:37.524Z,3.20
2018-12-05T12:09:09.704Z,4.40
2018-12-05T12:12:12.134Z,3.00
2018-12-05T12:13:43.151Z,3.50
2018-12-05T12:15:14.124Z,2.90
2018-12-05T12:16:45.412Z,3.20
2018-12-05T12:18:16.945Z,2.90
2018-12-05T12:19:48.554Z,3.10
2018-12-05T12:21:21.157Z,2.70
2018-12-05T12:22:52.975Z,2.70
2018-12-05T12:24:24.292Z,5.10
2018-12-05T12:25:55.691Z,2.60
2018-12-05T12:27:28.302Z,3.40
2018-12-05T12:28:59.176Z,3.40
2018-12-05T12:30:30.839Z,2.40
2018-12-05T12:32:02.315Z,2.30
2018-12-05T12:33:34.441Z,2.20
2018-12-05T12:35:05.574Z,2.30
2018-12-05T12:36:37.904Z,2.10
2018-12-05T12:38:09.305Z,2.10
2018-12-05T12:39:41.118Z,2.60
2018-12-05T12:41:11.824Z,2.20
2018-12-05T12:42:43.827Z,2.30
2018-12-05T12:44:15.967Z,2.20
2018-12-05T12:45:46.511Z,2.70
2018-12-05T12:47:18.020Z,2.90
2018-12-05T12:48:49.800Z,2.50
2018-12-05T12:50:21.932Z,3.80
2018-12-05T12:51:53.067Z,2.30
2018-12-05T12:53:24.797Z,2.40
2018-12-05T12:54:56.736Z,2.30
2018-12-05T12:56:27.986Z,3.00
2018-12-05T12:58:00.156Z,2.80
2018-12-05T12:59:32.327Z,2.00
2018-12-05T13:01:03.889Z,2.60
2018-12-05T13:02:34.383Z,2.00
2018-12-05T13:04:06.028Z,2.10
2018-12-05T13:05:37.213Z,2.40
2018-12-05T13:07:09.854Z,1.80
2018-12-05T13:08:40.369Z,2.10
2018-12-05T13:10:11.964Z,3.30
2018-12-05T13:11:43.479Z,3.10
2018-12-05T13:13:15.088Z,2.00
2018-12-05T13:14:47.635Z,1.90
2018-12-05T13:16:18.594Z,1.80
2018-12-05T13:17:49.942Z,1.90
2018-12-05T13:19:21.439Z,2.20
2018-12-05T13:22:24.641Z,2.30
2018-12-05T13:23:56.162Z,1.70
2018-12-05T13:27:00.061Z,1.90
2018-12-05T13:28:31.109Z,1.90
2018-12-05T13:30:03.285Z,2.10
2018-12-05T13:31:33.985Z,2.20
2018-12-05T13:33:06.300Z,3.90
2018-12-05T13:34:38.008Z,1.60
2018-12-05T13:36:10.023Z,2.10
2018-12-05T13:37:40.482Z,1.70
2018-12-05T13:39:12.266Z,2.10
2018-12-05T13:40:43.910Z,1.70
2018-12-05T13:42:15.753Z,2.10
2018-12-05T13:43:47.296Z,1.80
2018-12-05T13:45:19.507Z,1.80
2018-12-05T13:46:50.138Z,1.90
2018-12-05T13:48:22.413Z,1.60
2018-12-05T13:49:53.894Z,3.10
2018-12-05T13:51:25.266Z,2.60
2018-12-05T13:52:56.888Z,2.00
2018-12-05T13:54:29.636Z,1.90
2018-12-05T13:55:59.626Z,2.30
2018-12-05T13:57:32.649Z,1.90
2018-12-05T13:59:03.951Z,2.90
2018-12-05T14:00:35.438Z,1.70
2018-12-05T14:02:07.672Z,3.40
2018-12-05T14:03:39.224Z,2.00
2018-12-05T14:05:09.302Z,2.00
2018-12-05T14:06:42.202Z,1.80
2018-12-05T14:08:12.786Z,1.80
2018-12-05T14:09:44.163Z,1.80
2018-12-05T14:11:16.127Z,2.10
2018-12-05T14:12:47.832Z,2.00
2018-12-05T14:14:20.547Z,2.70
2018-12-05T14:15:50.681Z,2.10
2018-12-05T14:17:22.989Z,2.00
2018-12-05T14:18:54.218Z,1.90
2018-12-05T14:20:25.185Z,1.70
2018-12-05T14:21:57.115Z,1.90
2018-12-05T14:23:28.249Z,1.90
2018-12-05T14:24:59.790Z,2.00
2018-12-05T14:26:31.330Z,2.00
2018-12-05T14:28:02.908Z,2.20
2018-12-05T14:29:34.932Z,2.20
2018-12-05T14:31:06.439Z,3.90
2018-12-05T14:32:38.832Z,2.50
2018-12-05T14:34:09.703Z,2.00
2018-12-05T14:35:42.089Z,2.80
2018-12-05T14:37:12.670Z,2.00
2018-12-05T14:38:44.637Z,2.70
2018-12-05T14:40:15.756Z,2.70
2018-12-05T14:41:47.748Z,2.40
2018-12-05T14:43:19.547Z,2.30
2018-12-05T14:44:50.633Z,2.40
2018-12-05T14:46:22.168Z,1.90
2018-12-05T14:47:53.668Z,2.00
2018-12-05T14:49:25.834Z,2.00
2018-12-05T14:50:56.797Z,3.20
2018-12-05T14:52:28.652Z,1.80
2018-12-05T14:53:59.835Z,2.20
2018-12-05T14:55:32.540Z,3.40
2018-12-05T14:57:04.265Z,1.80
2018-12-05T14:58:34.674Z,2.60
2018-12-05T15:00:06.595Z,2.10
2018-12-05T15:01:38.191Z,2.00
2018-12-05T15:03:10.206Z,2.00
2018-12-05T15:04:40.379Z,2.50
2018-12-05T15:06:12.435Z,2.50
2018-12-05T15:07:44.277Z,2.60
2018-12-05T15:09:16.657Z,2.00
2018-12-05T15:10:47.997Z,2.00
2018-12-05T15:13:49.733Z,2.90
2018-12-05T15:15:24.228Z,2.30
2018-12-05T15:16:54.883Z,2.50
2018-12-05T15:18:26.269Z,2.20
2018-12-05T15:19:56.137Z,2.30
2018-12-05T15:21:29.418Z,2.50
2018-12-05T15:23:01.026Z,2.30
2018-12-05T15:24:31.723Z,4.00
2018-12-05T15:26:03.677Z,3.20
2018-12-05T15:27:35.619Z,4.00
2018-12-05T15:29:05.318Z,3.00
2018-12-05T15:30:36.978Z,3.90
2018-12-05T15:32:08.483Z,5.20
2018-12-05T15:33:40.064Z,5.30
2018-12-05T15:35:11.796Z,4.40
2018-12-05T15:38:15.241Z,4.70
2018-12-05T15:39:46.392Z,4.30
2018-12-05T15:41:18.020Z,4.40
2018-12-05T15:42:49.560Z,3.40
2018-12-05T15:44:21.334Z,3.80
2018-12-05T15:47:25.111Z,2.50
2018-12-05T15:48:55.962Z,3.20
2018-12-05T15:50:27.493Z,2.80
2018-12-05T15:51:59.350Z,3.90
2018-12-05T15:53:31.282Z,3.00
2018-12-05T15:55:02.511Z,3.80
2018-12-05T15:56:34.365Z,6.90
2018-12-05T15:58:05.413Z,4.00
2018-12-05T15:59:37.399Z,3.40
2018-12-05T16:02:40.578Z,2.90
2018-12-05T16:04:12.382Z,3.60
2018-12-05T16:05:43.983Z,4.10
2018-12-05T16:07:14.876Z,2.60
2018-12-05T16:08:46.460Z,2.90
2018-12-05T16:13:21.763Z,3.10
2018-12-05T16:14:53.012Z,3.50
2018-12-05T16:16:24.621Z,3.60
2018-12-05T16:17:56.556Z,2.70
2018-12-05T16:19:27.574Z,2.40
2018-12-05T16:22:30.743Z,2.50
2018-12-05T16:24:03.627Z,2.30
2018-12-05T16:25:33.927Z,3.40
2018-12-05T16:27:05.509Z,3.30
2018-12-05T16:28:37.098Z,5.60
2018-12-05T16:30:11.754Z,5.30
2018-12-05T16:33:11.960Z,8.10
2018-12-05T16:34:43.882Z,11.80
2018-12-05T16:36:15.028Z,8.20
2018-12-05T16:39:18.242Z,8.70
2018-12-05T16:40:49.781Z,6.70
2018-12-05T16:42:21.670Z,6.70
2018-12-05T16:43:52.952Z,5.40
2018-12-05T16:46:56.321Z,5.90
2018-12-05T16:49:59.287Z,6.50
2018-12-05T16:53:02.870Z,4.80
2018-12-05T16:54:34.052Z,6.20
2018-12-05T16:56:05.624Z,6.50
2018-12-05T16:57:37.208Z,4.50
2018-12-05T17:00:40.378Z,5.20
2018-12-05T17:02:11.979Z,5.20
2018-12-05T17:05:15.337Z,5.00
2018-12-05T17:06:47.228Z,4.80
2018-12-05T17:08:18.304Z,4.80
2018-12-05T17:09:49.892Z,3.90
2018-12-05T17:11:21.783Z,4.60
2018-12-05T17:12:53.264Z,4.50
2018-12-05T17:14:24.705Z,3.50
2018-12-05T17:15:56.273Z,4.10
2018-12-05T17:17:27.830Z,3.70
2018-12-05T17:18:59.616Z,3.30
2018-12-05T17:20:30.996Z,3.60
2018-12-05T17:22:02.887Z,6.20
2018-12-05T17:23:34.167Z,3.40
2018-12-05T17:25:05.757Z,5.70
2018-12-05T17:26:37.880Z,3.10
2018-12-05T17:29:40.513Z,3.00
2018-12-05T17:34:15.386Z,3.50
2018-12-05T17:37:18.651Z,3.10
2018-12-05T17:38:50.182Z,3.80
2018-12-05T17:40:21.674Z,3.80
2018-12-05T17:41:53.210Z,2.90
2018-12-05T17:43:25.213Z,4.60
2018-12-05T17:44:56.383Z,4.30
2018-12-05T17:46:27.971Z,2.90
2018-12-05T17:47:59.624Z,2.80
2018-12-05T17:49:31.147Z,2.60
2018-12-05T17:51:02.933Z,2.70
2018-12-05T17:52:34.940Z,3.00
2018-12-05T17:54:05.906Z,3.10
2018-12-05T17:55:37.492Z,3.00
2018-12-05T17:57:09.079Z,3.40
2018-12-05T17:58:41.020Z,3.20
2018-12-05T18:00:12.251Z,2.90
2018-12-05T18:01:44.487Z,3.30
2018-12-05T18:03:15.429Z,2.50
2018-12-05T18:04:47.026Z,3.20
2018-12-05T18:06:18.596Z,2.80
2018-12-05T18:07:50.384Z,3.10
2018-12-05T18:09:21.806Z,4.00
2018-12-05T18:10:53.649Z,2.90
2018-12-05T18:12:25.143Z,3.00
2018-12-05T18:13:56.526Z,4.30
2018-12-05T18:15:28.113Z,3.20
2018-12-05T18:16:59.900Z,3.30
2018-12-05T18:18:31.294Z,3.10
2018-12-05T18:21:34.453Z,3.80
2018-12-05T18:23:06.039Z,3.20
2018-12-05T18:24:37.625Z,3.30
2018-12-05T18:27:41.001Z,3.40
2018-12-05T18:29:12.479Z,2.70
2018-12-05T18:30:43.965Z,5.90
2018-12-05T18:32:15.551Z,3.30
2018-12-05T18:33:47.339Z,2.70
2018-12-05T18:35:18.723Z,3.30
2018-12-05T18:36:50.511Z,5.10
2018-12-05T18:38:22.093Z,3.90
2018-12-05T18:39:53.475Z,3.80
2018-12-05T18:41:25.061Z,2.50
2018-12-05T18:45:59.817Z,3.20
2018-12-05T18:47:31.501Z,3.00
2018-12-05T18:49:03.299Z,3.10
2018-12-05T18:50:34.875Z,2.70
2018-12-05T18:52:06.284Z,4.00
2018-12-05T18:53:38.665Z,2.90
2018-12-05T18:55:09.324Z,2.60
2018-12-05T18:58:12.703Z,2.90
2018-12-05T18:59:44.217Z,2.30
2018-12-05T19:01:15.838Z,2.70
2018-12-05T19:04:19.043Z,3.60
2018-12-05T19:05:50.517Z,3.20
2018-12-05T19:07:21.999Z,4.80
2018-12-05T19:08:53.607Z,2.80
2018-12-05T19:10:25.172Z,4.60
2018-12-05T19:11:56.762Z,4.30
2018-12-05T19:13:28.858Z,2.80
2018-12-05T19:14:59.920Z,2.70
2018-12-05T19:16:31.505Z,3.00
2018-12-05T19:18:03.087Z,2.80
2018-12-05T19:19:34.671Z,2.60
2018-12-05T19:21:06.777Z,2.30
2018-12-05T19:24:09.535Z,2.70
2018-12-05T19:27:13.727Z,2.60
2018-12-05T19:28:44.174Z,2.80
2018-12-05T19:30:16.062Z,6.40
2018-12-05T19:31:47.340Z,3.10
2018-12-05T19:33:18.927Z,2.30
2018-12-05T19:34:51.227Z,2.30
2018-12-05T19:36:22.090Z,2.40
2018-12-05T19:40:57.053Z,4.10
2018-12-05T19:42:28.536Z,2.50
2018-12-05T19:44:00.008Z,1.70
2018-12-05T19:45:31.591Z,2.40
2018-12-05T19:47:03.376Z,2.50
2018-12-05T19:48:34.960Z,1.90
2018-12-05T19:50:06.340Z,3.70
2018-12-05T19:53:09.532Z,3.00
2018-12-05T19:54:41.095Z,3.50
2018-12-05T19:56:12.671Z,3.50
2018-12-05T19:57:44.254Z,2.60
2018-12-05T20:00:47.519Z,3.10
2018-12-05T20:02:19.001Z,2.70
2018-12-05T20:03:50.785Z,2.40
2018-12-05T20:05:22.166Z,2.30
2018-12-05T20:08:25.331Z,2.10
2018-12-05T20:11:28.501Z,3.80
2018-12-05T20:13:00.077Z,2.20
2018-12-05T20:14:31.659Z,2.50
2018-12-05T20:17:35.036Z,4.20
2018-12-05T20:19:06.405Z,5.00
2018-12-05T20:22:09.769Z,2.60
2018-12-05T20:23:41.150Z,2.50
2018-12-05T20:25:12.732Z,2.40
2018-12-05T20:26:45.037Z,2.40
2018-12-05T20:28:15.897Z,2.40
2018-12-05T20:29:47.477Z,2.10
2018-12-05T20:31:19.058Z,4.00
2018-12-05T20:32:50.944Z,2.50
2018-12-05T20:34:22.220Z,2.40
2018-12-05T20:35:53.801Z,1.90
2018-12-05T20:37:25.383Z,2.30
2018-12-05T20:38:56.964Z,1.50
2018-12-05T20:40:28.645Z,2.90
2018-12-05T20:42:00.125Z,1.60
2018-12-05T20:43:31.706Z,2.20
2018-12-05T20:45:03.286Z,4.50
2018-12-05T20:46:34.866Z,2.20
2018-12-05T20:48:06.447Z,1.70
2018-12-05T20:49:38.027Z,2.30
2018-12-05T20:51:09.607Z,1.50
2018-12-05T20:52:41.188Z,1.50
2018-12-05T20:54:12.777Z,2.30
2018-12-05T20:55:44.349Z,2.70